createdAt,value
2023-12-05T00:02:04.360Z,99.99
2023-12-05T00:04:20.907Z,99.99
2023-12-05T00:06:36.386Z,99.99
2023-12-05T00:08:54.429Z,99.99
2023-12-05T00:11:12.535Z,99.99
2023-12-05T00:13:28.268Z,99.99
2023-12-05T00:15:43.724Z,99.99
2023-12-05T00:18:00.328Z,99.99
2023-12-05T00:20:15.027Z,99.99
2023-12-05T00:22:30.521Z,99.99
2023-12-05T00:24:46.260Z,99.99
2023-12-05T00:26:59.787Z,99.99
2023-12-05T00:29:17.839Z,99.99
2023-12-05T00:31:35.932Z,99.99
2023-12-05T00:33:54.157Z,99.99
2023-12-05T00:36:09.626Z,99.99
2023-12-05T00:38:27.691Z,99.99
2023-12-05T00:40:41.279Z,99.99
2023-12-05T00:42:59.460Z,99.99
2023-12-05T00:45:13.017Z,99.99
2023-12-05T00:47:28.651Z,99.99
2023-12-05T00:49:42.380Z,99.99
2023-12-05T00:52:03.041Z,99.99
2023-12-05T00:54:21.194Z,99.99
2023-12-05T00:56:33.217Z,99.99
2023-12-05T00:58:53.866Z,99.99
2023-12-05T01:01:07.418Z,99.99
2023-12-05T01:03:21.501Z,99.99
2023-12-05T01:05:39.394Z,99.99
2023-12-05T01:07:52.766Z,99.99
2023-12-05T01:10:10.917Z,99.99
2023-12-05T01:12:26.423Z,99.99
2023-12-05T01:14:44.489Z,99.99
2023-12-05T01:17:05.118Z,99.99
2023-12-05T01:19:23.239Z,99.99
2023-12-05T01:21:37.777Z,99.99
2023-12-05T01:23:55.815Z,99.99
2023-12-05T01:26:07.922Z,99.99
2023-12-05T01:28:21.503Z,99.99
2023-12-05T01:30:42.130Z,99.99
2023-12-05T01:32:57.745Z,99.99
2023-12-05T01:35:15.788Z,99.99
2023-12-05T01:37:33.896Z,99.99
2023-12-05T01:39:49.614Z,99.99
2023-12-05T01:42:05.075Z,99.99
2023-12-05T01:44:20.709Z,99.99
2023-12-05T01:46:36.277Z,99.99
2023-12-05T01:48:49.914Z,99.99
2023-12-05T01:51:05.491Z,99.99
2023-12-05T01:53:24.443Z,99.99
2023-12-05T01:55:41.642Z,99.99
2023-12-05T01:57:57.251Z,99.99
2023-12-05T02:00:11.758Z,99.99
2023-12-05T02:02:29.870Z,99.99
2023-12-05T02:04:45.923Z,99.99
2023-12-05T02:06:58.569Z,99.99
2023-12-05T02:09:13.151Z,99.99
2023-12-05T02:11:30.254Z,99.99
2023-12-05T02:13:46.751Z,99.99
2023-12-05T02:16:03.864Z,99.99
2023-12-05T02:18:19.769Z,99.99
2023-12-05T02:20:37.552Z,99.99
2023-12-05T02:22:56.513Z,99.99
2023-12-05T02:25:13.748Z,99.99
2023-12-05T02:27:29.337Z,99.99
2023-12-05T02:29:43.227Z,99.99
2023-12-05T02:31:58.864Z,99.99
2023-12-05T02:34:17.034Z,99.99
2023-12-05T02:36:34.986Z,99.99
2023-12-05T02:38:50.546Z,99.99
2023-12-05T02:41:06.184Z,99.99
2023-12-05T02:43:19.745Z,99.99
2023-12-05T02:45:32.761Z,99.99
2023-12-05T02:47:45.554Z,99.99
2023-12-05T02:50:01.086Z,99.99
2023-12-05T02:52:16.665Z,99.99
2023-12-05T02:54:34.992Z,99.99
2023-12-05T02:56:53.085Z,99.99
2023-12-05T02:59:08.617Z,99.99
2023-12-05T03:01:21.333Z,99.99
2023-12-05T03:03:35.101Z,99.99
2023-12-05T03:05:53.048Z,99.99
2023-12-05T03:08:08.580Z,99.99
2023-12-05T03:10:25.090Z,99.99
2023-12-05T03:12:39.861Z,99.99
2023-12-05T03:14:55.409Z,99.99
2023-12-05T03:17:11.042Z,99.99
2023-12-05T03:19:26.608Z,99.99
2023-12-05T03:21:40.169Z,99.99
2023-12-05T03:23:58.255Z,99.99
2023-12-05T03:26:16.397Z,99.99
2023-12-05T03:28:36.946Z,99.99
2023-12-05T03:30:55.036Z,99.99
2023-12-05T03:33:10.628Z,99.99
2023-12-05T03:35:28.692Z,99.99
2023-12-05T03:37:42.308Z,99.99
2023-12-05T03:40:00.405Z,99.99
2023-12-05T03:42:18.562Z,99.99
2023-12-05T03:44:35.069Z,99.99
2023-12-05T03:46:53.203Z,99.99
2023-12-05T03:49:13.951Z,99.99
2023-12-05T03:51:29.363Z,99.99
2023-12-05T03:53:43.993Z,99.99
2023-12-05T03:56:01.400Z,99.99
2023-12-05T03:58:18.584Z,99.99
2023-12-05T04:00:34.198Z,99.99
2023-12-05T04:02:52.234Z,99.99
2023-12-05T04:05:06.130Z,99.99
2023-12-05T04:07:23.062Z,99.99
2023-12-05T04:09:37.704Z,99.99
2023-12-05T04:11:50.683Z,99.99
2023-12-05T04:14:07.108Z,99.99
2023-12-05T04:16:21.873Z,99.99
2023-12-05T04:18:38.950Z,99.99
2023-12-05T04:20:53.047Z,99.99
2023-12-05T04:23:06.656Z,99.99
2023-12-05T04:25:24.702Z,99.99
2023-12-05T04:27:42.898Z,99.99
2023-12-05T04:30:00.881Z,99.99
2023-12-05T04:32:16.475Z,99.99
2023-12-05T04:34:37.021Z,99.99
2023-12-05T04:36:50.212Z,99.99
2023-12-05T04:39:08.296Z,99.99
2023-12-05T04:41:22.690Z,99.99
2023-12-05T04:43:35.497Z,99.99
2023-12-05T04:45:52.622Z,99.99
2023-12-05T04:48:04.452Z,99.99
2023-12-05T04:50:23.972Z,99.99
2023-12-05T04:52:36.026Z,99.99
2023-12-05T04:54:49.716Z,99.99
2023-12-05T04:57:08.721Z,99.99
2023-12-05T04:59:23.370Z,99.99
2023-12-05T05:01:38.900Z,99.99
2023-12-05T05:03:57.360Z,99.99
2023-12-05T05:06:12.705Z,99.99
2023-12-05T05:08:30.707Z,99.99
2023-12-05T05:10:46.343Z,99.99
2023-12-05T05:13:04.334Z,99.99
2023-12-05T05:15:19.969Z,99.99
2023-12-05T05:17:32.027Z,99.99
2023-12-05T05:19:45.742Z,99.99
2023-12-05T05:21:59.223Z,99.99
2023-12-05T05:24:12.895Z,99.99
2023-12-05T05:26:30.897Z,99.99
2023-12-05T05:28:44.246Z,99.99
2023-12-05T05:30:57.589Z,99.99
2023-12-05T05:33:11.189Z,99.99
2023-12-05T05:35:25.331Z,99.99
2023-12-05T05:37:38.266Z,99.99
2023-12-05T05:39:53.925Z,99.99
2023-12-05T05:42:07.544Z,99.99
2023-12-05T05:44:21.074Z,99.99
2023-12-05T05:46:36.640Z,99.99
2023-12-05T05:48:50.274Z,99.99
2023-12-05T05:51:02.896Z,99.99
2023-12-05T05:53:18.003Z,99.99
2023-12-05T05:55:33.540Z,99.99
2023-12-05T05:57:51.721Z,99.99
2023-12-05T06:00:10.668Z,99.99
2023-12-05T06:02:25.321Z,99.99
2023-12-05T06:04:40.989Z,99.99
2023-12-05T06:06:57.460Z,99.99
2023-12-05T06:09:13.044Z,99.99
2023-12-05T06:11:26.695Z,99.99
2023-12-05T06:13:44.710Z,99.99
2023-12-05T06:15:58.344Z,99.99
2023-12-05T06:18:13.965Z,99.99
2023-12-05T06:20:25.955Z,99.99
2023-12-05T06:22:41.541Z,99.99
2023-12-05T06:24:55.190Z,99.99
2023-12-05T06:27:10.790Z,99.99
2023-12-05T06:29:24.484Z,99.99
2023-12-05T06:31:42.204Z,99.99
2023-12-05T06:33:53.631Z,99.97
2023-12-05T06:36:07.140Z,99.97
2023-12-05T06:38:20.740Z,99.99
2023-12-05T06:40:34.335Z,99.99
2023-12-05T06:42:48.242Z,99.99
2023-12-05T06:45:03.489Z,99.99
2023-12-05T06:47:17.102Z,99.99
2023-12-05T06:49:32.836Z,99.99
2023-12-05T06:51:46.363Z,99.99
2023-12-05T06:53:59.876Z,99.99
2023-12-05T06:56:15.462Z,99.99
2023-12-05T06:58:29.050Z,99.99
2023-12-05T07:00:41.253Z,99.99
2023-12-05T07:02:54.681Z,99.99
2023-12-05T07:05:07.148Z,99.99
2023-12-05T07:07:20.794Z,99.97
2023-12-05T07:09:34.413Z,99.99
2023-12-05T07:11:48.163Z,99.99
2023-12-05T07:14:00.553Z,99.87
2023-12-05T07:16:12.362Z,99.55
2023-12-05T07:18:28.021Z,99.44
2023-12-05T07:20:43.494Z,99.19
2023-12-05T07:22:59.141Z,99.51
2023-12-05T07:25:12.753Z,99.61
2023-12-05T07:27:26.313Z,99.61
2023-12-05T07:29:38.384Z,98.98
2023-12-05T07:31:51.976Z,99.30
2023-12-05T07:34:04.245Z,99.30
2023-12-05T07:36:16.192Z,99.30
2023-12-05T07:38:29.741Z,99.40
2023-12-05T07:40:45.307Z,99.08
2023-12-05T07:42:58.970Z,98.88
2023-12-05T07:45:11.034Z,99.19
2023-12-05T07:47:24.579Z,98.98
2023-12-05T07:49:36.725Z,99.19
2023-12-05T07:51:52.249Z,98.77
2023-12-05T07:54:05.866Z,98.72
2023-12-05T07:56:17.974Z,98.94
2023-12-05T07:58:31.536Z,98.72
2023-12-05T08:00:45.162Z,99.04
2023-12-05T08:02:57.588Z,99.25
2023-12-05T08:05:10.903Z,98.62
2023-12-05T08:07:26.101Z,98.83
2023-12-05T08:09:37.030Z,98.52
2023-12-05T08:11:51.568Z,98.79
2023-12-05T08:14:04.043Z,98.47
2023-12-05T08:16:16.888Z,97.95
2023-12-05T08:18:29.962Z,97.85
2023-12-05T08:20:41.952Z,97.85
2023-12-05T08:22:55.849Z,97.63
2023-12-05T08:25:09.006Z,98.43
2023-12-05T08:27:21.080Z,98.74
2023-12-05T08:29:34.660Z,98.22
2023-12-05T08:31:50.215Z,97.69
2023-12-05T08:34:02.383Z,98.11
2023-12-05T08:36:17.949Z,97.38
2023-12-05T08:38:31.463Z,97.28
2023-12-05T08:40:43.566Z,98.01
2023-12-05T08:42:55.698Z,97.80
2023-12-05T08:45:07.714Z,97.59
2023-12-05T08:47:19.811Z,97.65
2023-12-05T08:49:32.036Z,97.65
2023-12-05T08:51:44.105Z,97.13
2023-12-05T08:53:56.104Z,97.13
2023-12-05T08:56:09.697Z,96.61
2023-12-05T08:58:21.788Z,96.71
2023-12-05T09:00:33.889Z,96.77
2023-12-05T09:02:45.991Z,96.35
2023-12-05T09:04:58.210Z,96.77
2023-12-05T09:07:10.294Z,96.35
2023-12-05T09:09:23.302Z,96.41
2023-12-05T09:11:35.325Z,96.20
2023-12-05T09:13:47.444Z,95.37
2023-12-05T09:15:59.568Z,96.47
2023-12-05T09:18:11.632Z,94.32
2023-12-05T09:20:23.692Z,95.43
2023-12-05T09:22:36.043Z,95.95
2023-12-05T09:24:47.929Z,95.32
2023-12-05T09:26:59.957Z,95.84
2023-12-05T09:29:12.048Z,94.80
2023-12-05T09:31:25.624Z,95.11
2023-12-05T09:33:39.206Z,95.11
2023-12-05T09:35:51.304Z,94.80
2023-12-05T09:38:03.352Z,94.49
2023-12-05T09:40:15.427Z,96.05
2023-12-05T09:42:27.663Z,95.43
2023-12-05T09:45:54.254Z,94.90
2023-12-05T09:48:06.431Z,95.70
2023-12-05T09:50:19.481Z,95.43
2023-12-05T09:52:31.501Z,95.80
2023-12-05T09:54:43.604Z,95.11
2023-12-05T09:56:55.647Z,95.74
2023-12-05T09:59:07.729Z,95.11
2023-12-05T10:01:19.825Z,95.32
2023-12-05T10:03:32.003Z,95.84
2023-12-05T10:05:44.047Z,95.53
2023-12-05T10:07:56.072Z,96.58
2023-12-05T10:10:08.164Z,96.26
2023-12-05T10:12:21.226Z,95.32
2023-12-05T10:14:32.367Z,95.53
2023-12-05T10:16:44.436Z,95.84
2023-12-05T10:18:56.615Z,95.43
2023-12-05T10:21:09.140Z,94.80
2023-12-05T10:23:21.656Z,94.90
2023-12-05T10:25:33.761Z,95.74
2023-12-05T10:27:45.846Z,95.11
2023-12-05T10:29:58.897Z,95.49
2023-12-05T10:32:12.507Z,95.38
2023-12-05T10:34:24.681Z,95.38
2023-12-05T10:35:24.570Z,95.80
2023-12-05T10:37:36.694Z,95.49
2023-12-05T10:39:50.364Z,96.22
2023-12-05T10:42:03.363Z,97.16
2023-12-05T10:44:16.916Z,96.74
2023-12-05T10:46:29.039Z,97.05
2023-12-05T10:48:41.358Z,97.89
2023-12-05T10:50:53.171Z,97.47
2023-12-05T10:53:05.272Z,97.68
2023-12-05T10:55:17.395Z,98.10
2023-12-05T10:56:17.311Z,97.37
2023-12-05T10:58:29.440Z,98.52
2023-12-05T11:00:41.535Z,97.47
2023-12-05T11:02:53.613Z,98.52
2023-12-05T11:05:05.829Z,97.78
2023-12-05T11:07:17.844Z,98.83
2023-12-05T11:09:29.841Z,98.52
2023-12-05T11:11:42.878Z,98.93
2023-12-05T11:13:55.958Z,99.88
2023-12-05T11:16:08.060Z,99.71
2023-12-05T11:18:20.437Z,99.82
2023-12-05T11:20:32.519Z,99.98
2023-12-05T11:22:44.584Z,99.04
2023-12-05T11:24:56.751Z,99.25
2023-12-05T11:27:10.259Z,98.89
2023-12-05T11:29:22.629Z,97.58
2023-12-05T11:31:34.750Z,98.16
2023-12-05T11:33:47.052Z,97.64
2023-12-05T11:35:59.913Z,97.11
2023-12-05T11:38:11.992Z,96.91
2023-12-05T11:40:30.178Z,97.43
2023-12-05T11:42:38.796Z,96.80
2023-12-05T11:44:50.743Z,96.80
2023-12-05T11:47:02.841Z,97.53
2023-12-05T11:49:15.000Z,96.91
2023-12-05T11:51:27.030Z,97.74
2023-12-05T11:53:39.107Z,97.53
2023-12-05T11:55:50.179Z,97.01
2023-12-05T11:58:02.280Z,96.38
2023-12-05T12:00:15.901Z,97.07
2023-12-05T12:02:27.407Z,96.80
2023-12-05T12:04:40.020Z,96.91
2023-12-05T12:06:52.925Z,97.01
2023-12-05T12:09:05.043Z,97.32
2023-12-05T12:11:18.076Z,97.32
2023-12-05T12:13:30.107Z,97.95
2023-12-05T12:15:42.287Z,98.37
2023-12-05T12:17:55.318Z,98.58
2023-12-05T12:20:07.443Z,98.58
2023-12-05T12:22:20.444Z,99.41
2023-12-05T12:24:32.577Z,99.25
2023-12-05T12:26:44.681Z,98.93
2023-12-05T12:28:57.188Z,98.93
2023-12-05T12:31:10.301Z,99.77
2023-12-05T12:33:22.423Z,99.99
2023-12-05T12:35:34.464Z,99.88
2023-12-05T12:37:52.631Z,99.88
2023-12-05T12:39:58.718Z,99.88
2023-12-05T12:42:11.915Z,99.98
2023-12-05T12:44:23.794Z,99.77
2023-12-05T12:46:36.170Z,99.99
2023-12-05T12:48:48.370Z,99.99
2023-12-05T12:51:00.358Z,99.99
2023-12-05T12:53:13.915Z,99.99
2023-12-05T12:55:26.982Z,99.99
2023-12-05T12:57:39.109Z,99.99
2023-12-05T13:00:29.457Z,99.99
2023-12-05T13:00:53.736Z,99.99
2023-12-05T13:03:04.726Z,99.99
2023-12-05T13:05:16.816Z,99.99
2023-12-05T13:07:29.908Z,99.99
2023-12-05T13:09:43.345Z,99.99
2023-12-05T13:11:55.582Z,99.99
2023-12-05T13:14:07.635Z,99.99
2023-12-05T13:16:19.774Z,99.99
2023-12-05T13:18:31.841Z,99.99
2023-12-05T13:20:43.898Z,99.99
2023-12-05T13:22:57.359Z,99.99
2023-12-05T13:25:09.077Z,99.99
2023-12-05T13:27:21.186Z,99.99
2023-12-05T13:29:33.266Z,99.99
2023-12-05T13:31:46.847Z,99.99
2023-12-05T13:33:58.989Z,99.99
2023-12-05T13:36:11.065Z,99.99
2023-12-05T13:38:23.141Z,99.99
2023-12-05T13:40:36.226Z,99.99
2023-12-05T13:42:48.310Z,99.99
2023-12-05T13:45:00.343Z,99.99
2023-12-05T13:47:12.447Z,99.99
2023-12-05T13:49:25.595Z,99.99
2023-12-05T13:51:38.614Z,99.99
2023-12-05T13:53:51.707Z,99.99
2023-12-05T13:56:03.757Z,99.99
2023-12-05T13:58:17.405Z,99.99
2023-12-05T14:00:29.679Z,99.99
2023-12-05T14:02:41.542Z,99.99
2023-12-05T14:04:54.132Z,99.99
2023-12-05T14:07:07.071Z,99.99
2023-12-05T14:09:21.126Z,99.99
2023-12-05T14:11:31.298Z,99.99
2023-12-05T14:13:43.309Z,99.99
2023-12-05T14:15:55.469Z,99.99
2023-12-05T14:18:07.504Z,99.99
2023-12-05T14:20:19.609Z,99.99
2023-12-05T14:22:32.610Z,99.99
2023-12-05T14:24:44.871Z,99.99
2023-12-05T14:26:56.796Z,99.99
2023-12-05T14:29:08.847Z,99.99
2023-12-05T14:31:20.949Z,99.99
2023-12-05T14:33:33.139Z,99.99
2023-12-05T14:35:45.121Z,99.99
2023-12-05T14:37:57.188Z,99.99
2023-12-05T14:40:10.754Z,99.99
2023-12-05T14:42:22.888Z,99.99
2023-12-05T14:44:35.026Z,99.99
2023-12-05T14:46:48.023Z,99.99
2023-12-05T14:49:00.167Z,99.99
2023-12-05T14:51:12.472Z,99.99
2023-12-05T14:53:24.565Z,99.99
2023-12-05T14:55:37.669Z,99.99
2023-12-05T14:57:51.281Z,99.99
2023-12-05T15:00:03.312Z,99.99
2023-12-05T15:02:15.428Z,99.99
2023-12-05T15:04:27.605Z,99.99
2023-12-05T15:06:39.621Z,99.99
2023-12-05T15:08:51.669Z,99.99
2023-12-05T15:11:03.724Z,99.99
2023-12-05T15:13:15.811Z,99.99
2023-12-05T15:15:27.909Z,99.99
2023-12-05T15:17:40.008Z,99.99
2023-12-05T15:20:18.226Z,99.99
2023-12-05T15:22:04.228Z,99.99
2023-12-05T15:24:16.261Z,99.99
2023-12-05T15:26:29.855Z,99.99
2023-12-05T15:28:42.960Z,99.99
2023-12-05T15:30:55.041Z,99.99
2023-12-05T15:33:07.257Z,99.99
2023-12-05T15:35:19.125Z,99.99
2023-12-05T15:37:32.786Z,99.99
2023-12-05T15:39:44.898Z,99.99
2023-12-05T15:41:57.930Z,99.99
2023-12-05T15:44:11.045Z,99.99
2023-12-05T15:46:23.143Z,99.99
2023-12-05T15:48:44.385Z,99.99
2023-12-05T15:50:48.886Z,99.99
2023-12-05T15:53:00.875Z,99.99
2023-12-05T15:55:12.984Z,99.99
2023-12-05T15:57:25.048Z,99.99
2023-12-05T15:59:37.132Z,99.99
2023-12-05T16:01:49.259Z,99.99
2023-12-05T16:04:01.279Z,99.99
2023-12-05T16:06:13.363Z,99.99
2023-12-05T16:08:25.454Z,99.99
2023-12-05T16:10:39.015Z,99.99
2023-12-05T16:12:53.045Z,99.99
2023-12-05T16:15:04.826Z,99.99
2023-12-05T16:17:17.245Z,99.99
2023-12-05T16:19:29.007Z,99.99
2023-12-05T16:21:41.978Z,99.99
2023-12-05T16:23:54.057Z,99.99
2023-12-05T16:26:07.615Z,99.99
2023-12-05T16:28:20.710Z,99.99
2023-12-05T16:30:32.853Z,99.99
2023-12-05T16:32:44.904Z,99.99
2023-12-05T16:34:57.038Z,99.99
2023-12-05T16:37:09.071Z,99.99
2023-12-05T16:39:21.128Z,99.99
2023-12-05T16:41:33.187Z,99.99
2023-12-05T16:43:45.288Z,99.99
2023-12-05T16:45:57.426Z,99.99
2023-12-05T16:48:09.461Z,99.99
2023-12-05T16:50:23.327Z,99.99
2023-12-05T16:52:35.432Z,99.99
2023-12-05T16:54:49.023Z,99.99
2023-12-05T16:57:01.118Z,99.99
2023-12-05T16:59:21.222Z,99.99
2023-12-05T17:00:14.180Z,99.99
2023-12-05T17:02:26.745Z,99.99
2023-12-05T17:04:38.884Z,99.99
2023-12-05T17:06:52.004Z,99.99
2023-12-05T17:09:06.458Z,99.99
2023-12-05T17:11:19.551Z,99.99
2023-12-05T17:13:31.699Z,99.99
2023-12-05T17:15:43.798Z,99.99
2023-12-05T17:17:56.164Z,99.99
2023-12-05T17:20:09.197Z,99.99
2023-12-05T17:22:21.273Z,99.99
2023-12-05T17:24:34.408Z,99.99
2023-12-05T17:26:47.003Z,99.99
2023-12-05T17:28:58.510Z,99.99
2023-12-05T17:31:10.644Z,99.99
2023-12-05T17:33:22.755Z,99.99
2023-12-05T17:35:34.864Z,99.99
2023-12-05T17:37:48.514Z,99.99
2023-12-05T17:40:00.693Z,99.99
2023-12-05T17:42:12.712Z,99.99
2023-12-05T17:44:24.811Z,99.99
2023-12-05T17:46:37.862Z,99.99
2023-12-05T17:48:50.112Z,99.99
2023-12-05T17:51:02.064Z,99.99
2023-12-05T17:53:15.659Z,99.99
2023-12-05T17:55:27.872Z,99.99
2023-12-05T17:57:39.880Z,99.99
2023-12-05T17:59:52.023Z,99.99
2023-12-05T18:02:04.038Z,99.99
2023-12-05T18:04:16.175Z,99.99
2023-12-05T18:06:29.168Z,99.99
2023-12-05T18:08:42.786Z,99.99
2023-12-05T18:10:54.834Z,99.99
2023-12-05T18:13:08.011Z,99.99
2023-12-05T18:15:19.990Z,99.99
2023-12-05T18:17:32.095Z,99.99
2023-12-05T18:19:44.870Z,99.99
2023-12-05T18:21:56.239Z,99.99
2023-12-05T18:24:08.314Z,99.99
2023-12-05T18:26:19.392Z,99.99
2023-12-05T18:28:32.465Z,99.99
2023-12-05T18:30:44.626Z,99.99
2023-12-05T18:32:56.718Z,99.99
2023-12-05T18:35:08.734Z,99.99
2023-12-05T18:37:22.246Z,99.99
2023-12-05T18:39:34.232Z,99.99
2023-12-05T18:41:46.005Z,99.99
2023-12-05T18:43:58.063Z,99.99
2023-12-05T18:46:10.197Z,99.99
2023-12-05T18:48:22.236Z,99.99
2023-12-05T18:50:34.325Z,99.99
2023-12-05T18:52:46.440Z,99.99
2023-12-05T18:54:58.565Z,99.99
2023-12-05T18:57:10.618Z,99.99
2023-12-05T18:59:22.712Z,99.99
2023-12-05T19:01:34.877Z,99.99
2023-12-05T19:03:47.505Z,99.99
2023-12-05T19:05:59.562Z,99.99
2023-12-05T19:08:12.575Z,99.99
2023-12-05T19:10:24.669Z,99.99
2023-12-05T19:12:36.791Z,99.99
2023-12-05T19:14:50.373Z,99.99
2023-12-05T19:17:03.404Z,99.99
2023-12-05T19:19:17.093Z,99.99
2023-12-05T19:21:29.125Z,99.99
2023-12-05T19:23:41.169Z,99.99
2023-12-05T19:25:53.246Z,99.99
2023-12-05T19:28:06.852Z,99.99
2023-12-05T19:30:20.438Z,99.99
2023-12-05T19:32:32.595Z,99.99
2023-12-05T19:34:47.989Z,99.99
2023-12-05T19:36:59.187Z,99.99
2023-12-05T19:39:11.237Z,99.99
2023-12-05T19:41:23.312Z,99.99
2023-12-05T19:43:37.899Z,99.99
2023-12-05T19:45:51.981Z,99.99
2023-12-05T19:48:04.212Z,99.99
2023-12-05T19:50:16.149Z,99.99
2023-12-05T19:52:28.238Z,99.99
2023-12-05T19:54:40.353Z,99.99
2023-12-05T19:56:52.410Z,99.99
2023-12-05T19:59:08.031Z,99.99
2023-12-05T20:01:20.207Z,99.99
2023-12-05T20:03:35.840Z,99.99
2023-12-05T20:05:48.958Z,99.99
2023-12-05T20:08:00.852Z,99.99
2023-12-05T20:10:13.024Z,99.99
2023-12-05T20:12:25.011Z,99.99
2023-12-05T20:14:37.665Z,99.99
2023-12-05T20:16:49.177Z,99.99
2023-12-05T20:19:02.799Z,99.99
2023-12-05T20:21:14.883Z,99.99
2023-12-05T20:23:26.991Z,99.99
2023-12-05T20:25:39.040Z,99.99
2023-12-05T20:27:51.129Z,99.99
2023-12-05T20:30:03.212Z,99.99
2023-12-05T20:32:15.299Z,99.99
2023-12-05T20:34:27.432Z,99.99
2023-12-05T20:36:40.449Z,99.99
2023-12-05T20:38:52.520Z,99.99
2023-12-05T20:41:04.611Z,99.99
2023-12-05T20:43:16.730Z,99.99
2023-12-05T20:45:29.888Z,99.99
2023-12-05T20:47:44.517Z,99.99
2023-12-05T20:50:28.558Z,99.99
2023-12-05T20:52:10.918Z,99.99
2023-12-05T20:54:25.466Z,99.99
2023-12-05T20:56:41.259Z,99.99
2023-12-05T20:58:54.318Z,99.99
2023-12-05T21:01:12.457Z,99.99
2023-12-05T21:03:26.996Z,99.99
2023-12-05T21:05:39.376Z,99.99
2023-12-05T21:07:54.648Z,99.99
2023-12-05T21:10:08.320Z,99.99
2023-12-05T21:12:20.304Z,99.99
2023-12-05T21:14:32.413Z,99.99
2023-12-05T21:16:44.538Z,99.99
2023-12-05T21:18:56.841Z,99.99
2023-12-05T21:21:08.707Z,99.99
2023-12-05T21:23:22.308Z,99.99
2023-12-05T21:25:34.685Z,99.99
2023-12-05T21:27:47.512Z,99.99
2023-12-05T21:29:58.585Z,99.99
2023-12-05T21:32:10.684Z,99.99
2023-12-05T21:34:22.814Z,99.99
2023-12-05T21:37:00.479Z,99.99
2023-12-05T21:38:53.337Z,99.99
2023-12-05T21:41:03.518Z,99.99
2023-12-05T21:43:16.911Z,99.99
2023-12-05T21:45:30.485Z,99.99
2023-12-05T21:47:42.640Z,99.99
2023-12-05T21:49:54.772Z,99.99
2023-12-05T21:52:06.735Z,99.99
2023-12-05T21:54:18.874Z,99.99
2023-12-05T21:56:30.869Z,99.99
2023-12-05T21:58:42.974Z,99.99
2023-12-05T22:00:55.124Z,99.99
2023-12-05T22:03:07.152Z,99.99
2023-12-05T22:05:20.754Z,99.99
2023-12-05T22:07:33.796Z,99.99
2023-12-05T22:09:45.937Z,99.99
2023-12-05T22:11:58.076Z,99.99
2023-12-05T22:14:10.059Z,99.99
2023-12-05T22:16:22.157Z,99.99
2023-12-05T22:18:34.286Z,99.99
2023-12-05T22:20:46.294Z,99.99
2023-12-05T22:23:05.506Z,99.99
2023-12-05T22:25:12.496Z,99.99
2023-12-05T22:26:12.451Z,99.99
2023-12-05T22:28:24.561Z,99.99
2023-12-05T22:30:36.667Z,99.99
2023-12-05T22:32:49.783Z,99.99
2023-12-05T22:35:01.957Z,99.99
2023-12-05T22:37:13.946Z,99.99
2023-12-05T22:39:26.078Z,99.99
2023-12-05T22:41:39.061Z,99.99
2023-12-05T22:43:51.160Z,99.99
2023-12-05T22:46:03.255Z,99.99
2023-12-05T22:48:15.397Z,99.99
2023-12-05T22:50:28.951Z,99.99
2023-12-05T22:52:41.001Z,99.99
2023-12-05T22:54:53.101Z,99.99
2023-12-05T22:57:06.657Z,99.99
2023-12-05T22:59:18.763Z,99.99
2023-12-05T23:01:32.401Z,99.99
2023-12-05T23:03:44.482Z,99.99
2023-12-05T23:05:56.503Z,99.99
2023-12-05T23:08:08.599Z,99.99
2023-12-05T23:10:20.672Z,99.99
2023-12-05T23:12:32.775Z,99.99
2023-12-05T23:14:44.819Z,99.99
2023-12-05T23:16:57.008Z,99.99
2023-12-05T23:19:10.583Z,99.99
2023-12-05T23:21:26.096Z,99.99
2023-12-05T23:23:38.232Z,99.99
2023-12-05T23:25:51.289Z,99.99
2023-12-05T23:28:11.531Z,99.99
2023-12-05T23:30:15.421Z,99.99
2023-12-05T23:32:27.533Z,99.99
2023-12-05T23:34:40.753Z,99.99
2023-12-05T23:36:52.732Z,99.99
2023-12-05T23:39:04.798Z,99.99
2023-12-05T23:41:16.895Z,99.99
2023-12-05T23:43:33.242Z,99.99
2023-12-05T23:45:41.118Z,99.99
2023-12-05T23:48:04.285Z,99.99
2023-12-05T23:50:12.724Z,99.99
2023-12-05T23:52:24.804Z,99.99
2023-12-05T23:54:36.953Z,99.99
2023-12-05T23:56:49.993Z,99.99
2023-12-05T23:59:03.593Z,99.99
